createdAt,value
2023-05-06T00:00:55.953Z,32.97
2023-05-06T00:01:55.934Z,33.74
2023-05-06T00:02:56.029Z,32.87
2023-05-06T00:03:56.170Z,32.68
2023-05-06T00:04:56.058Z,33.84
2023-05-06T00:05:55.956Z,32.97
2023-05-06T00:06:55.937Z,33.07
2023-05-06T00:07:55.938Z,33.17
2023-05-06T00:08:55.944Z,32.97
2023-05-06T00:09:55.940Z,33.07
2023-05-06T00:10:55.944Z,33.26
2023-05-06T00:11:55.949Z,32.97
2023-05-06T00:12:56.063Z,32.87
2023-05-06T00:13:55.947Z,32.87
2023-05-06T00:14:55.946Z,32.87
2023-05-06T00:15:56.066Z,32.97
2023-05-06T00:16:55.951Z,33.36
2023-05-06T00:17:55.975Z,32.59
2023-05-06T00:18:55.975Z,32.29
2023-05-06T00:19:55.957Z,32.68
2023-05-06T00:20:55.957Z,33.07
2023-05-06T00:21:56.034Z,32.59
2023-05-06T00:22:55.988Z,32.78
2023-05-06T00:23:55.965Z,32.78
2023-05-06T00:24:55.976Z,31.91
2023-05-06T00:25:55.963Z,32.20
2023-05-06T00:26:55.971Z,32.59
2023-05-06T00:27:55.968Z,31.62
2023-05-06T00:28:55.978Z,32.39
2023-05-06T00:29:55.967Z,31.91
2023-05-06T00:30:55.975Z,32.20
2023-05-06T00:31:56.165Z,31.62
2023-05-06T00:32:56.032Z,32.39
2023-05-06T00:33:55.997Z,31.91
2023-05-06T00:34:55.985Z,31.62
2023-05-06T00:35:55.986Z,32.20
2023-05-06T00:36:55.986Z,32.29
2023-05-06T00:37:55.993Z,32.39
2023-05-06T00:38:55.988Z,32.01
2023-05-06T00:39:55.990Z,31.52
2023-05-06T00:40:55.998Z,31.24
2023-05-06T00:41:55.992Z,31.33
2023-05-06T00:42:55.998Z,31.91
2023-05-06T00:43:55.995Z,31.33
2023-05-06T00:44:55.999Z,31.43
2023-05-06T00:45:56.029Z,31.81
2023-05-06T00:46:56.007Z,31.43
2023-05-06T00:47:56.074Z,32.01
2023-05-06T00:48:56.008Z,31.72
2023-05-06T00:49:56.005Z,31.81
2023-05-06T00:50:56.006Z,31.43
2023-05-06T00:51:56.012Z,31.43
2023-05-06T00:52:56.015Z,31.43
2023-05-06T00:53:56.013Z,32.01
2023-05-06T00:54:56.013Z,31.81
2023-05-06T00:55:56.016Z,31.91
2023-05-06T00:56:56.020Z,31.33
2023-05-06T00:57:56.017Z,31.24
2023-05-06T00:58:56.025Z,32.01
2023-05-06T00:59:56.026Z,31.72
2023-05-06T01:00:56.037Z,31.72
2023-05-06T01:01:56.040Z,31.91
2023-05-06T01:02:56.095Z,32.39
2023-05-06T01:03:56.126Z,31.14
2023-05-06T01:04:56.046Z,31.43
2023-05-06T01:05:56.037Z,31.52
2023-05-06T01:06:56.036Z,31.43
2023-05-06T01:07:56.044Z,31.62
2023-05-06T01:08:56.046Z,31.72
2023-05-06T01:09:56.044Z,31.62
2023-05-06T01:10:56.044Z,31.62
2023-05-06T01:11:56.054Z,31.43
2023-05-06T01:12:56.079Z,31.52
2023-05-06T01:13:56.051Z,31.24
2023-05-06T01:14:56.051Z,31.72
2023-05-06T01:15:56.057Z,31.33
2023-05-06T01:16:56.107Z,31.14
2023-05-06T01:17:56.086Z,31.14
2023-05-06T01:18:56.061Z,31.33
2023-05-06T01:19:56.160Z,31.43
2023-05-06T01:20:56.082Z,31.43
2023-05-06T01:21:56.066Z,31.33
2023-05-06T01:22:56.070Z,31.24
2023-05-06T01:23:56.089Z,31.43
2023-05-06T01:24:56.070Z,31.43
2023-05-06T01:25:56.080Z,30.76
2023-05-06T01:26:56.076Z,31.24
2023-05-06T01:27:56.074Z,30.85
2023-05-06T01:28:56.076Z,31.33
2023-05-06T01:29:56.077Z,30.46
2023-05-06T01:30:56.126Z,31.43
2023-05-06T01:31:56.086Z,31.24
2023-05-06T01:32:56.136Z,31.43
2023-05-06T01:33:56.090Z,31.24
2023-05-06T01:34:56.083Z,30.56
2023-05-06T01:35:56.241Z,31.14
2023-05-06T01:36:56.091Z,30.56
2023-05-06T01:37:56.104Z,30.76
2023-05-06T01:38:56.101Z,30.56
2023-05-06T01:39:56.100Z,30.94
2023-05-06T01:40:56.099Z,31.43
2023-05-06T01:41:56.098Z,30.94
2023-05-06T01:42:56.103Z,31.24
2023-05-06T01:43:56.101Z,31.24
2023-05-06T01:44:56.108Z,30.66
2023-05-06T01:45:56.185Z,30.46
2023-05-06T01:46:56.111Z,31.14
2023-05-06T01:47:56.150Z,30.85
2023-05-06T01:48:56.114Z,30.76
2023-05-06T01:49:56.131Z,30.94
2023-05-06T01:50:56.121Z,30.46
2023-05-06T01:51:56.216Z,30.94
2023-05-06T01:52:56.123Z,30.08
2023-05-06T01:53:56.123Z,31.43
2023-05-06T01:54:56.128Z,30.66
2023-05-06T01:55:56.125Z,30.37
2023-05-06T01:56:56.174Z,31.24
2023-05-06T01:57:56.133Z,31.33
2023-05-06T01:58:56.130Z,30.66
2023-05-06T01:59:56.136Z,30.56
2023-05-06T02:00:56.123Z,30.85
2023-05-06T02:01:56.243Z,30.46
2023-05-06T02:02:56.268Z,30.56
2023-05-06T02:03:56.297Z,30.27
2023-05-06T02:04:56.140Z,30.27
2023-05-06T02:05:56.156Z,30.08
2023-05-06T02:06:56.136Z,30.56
2023-05-06T02:07:56.234Z,29.98
2023-05-06T02:08:56.140Z,30.18
2023-05-06T02:09:56.142Z,30.37
2023-05-06T02:10:56.154Z,30.76
2023-05-06T02:11:56.152Z,30.27
2023-05-06T02:12:56.176Z,30.27
2023-05-06T02:13:56.147Z,30.56
2023-05-06T02:14:56.158Z,29.89
2023-05-06T02:15:56.169Z,30.56
2023-05-06T02:16:56.154Z,30.85
2023-05-06T02:17:56.194Z,30.94
2023-05-06T02:18:56.157Z,29.89
2023-05-06T02:19:56.159Z,29.98
2023-05-06T02:20:56.176Z,30.18
2023-05-06T02:21:56.162Z,30.18
2023-05-06T02:22:56.169Z,30.18
2023-05-06T02:23:56.263Z,30.08
2023-05-06T02:24:56.168Z,30.85
2023-05-06T02:25:56.171Z,29.69
2023-05-06T02:26:56.167Z,30.18
2023-05-06T02:27:56.173Z,29.69
2023-05-06T02:28:56.204Z,30.27
2023-05-06T02:29:56.180Z,30.18
2023-05-06T02:30:56.183Z,30.37
2023-05-06T02:31:56.264Z,30.18
2023-05-06T02:32:56.203Z,30.27
2023-05-06T02:33:56.180Z,30.18
2023-05-06T02:34:56.200Z,29.79
2023-05-06T02:35:56.195Z,29.69
2023-05-06T02:36:56.190Z,29.69
2023-05-06T02:37:56.187Z,29.89
2023-05-06T02:38:56.194Z,30.46
2023-05-06T02:39:56.286Z,30.27
2023-05-06T02:40:56.195Z,29.79
2023-05-06T02:41:56.194Z,29.21
2023-05-06T02:42:56.259Z,29.60
2023-05-06T02:43:56.196Z,30.18
2023-05-06T02:44:56.199Z,29.21
2023-05-06T02:45:56.238Z,29.31
2023-05-06T02:46:56.203Z,29.79
2023-05-06T02:47:56.225Z,29.60
2023-05-06T02:48:56.206Z,29.31
2023-05-06T02:49:56.211Z,29.31
2023-05-06T02:50:56.207Z,29.31
2023-05-06T02:51:56.210Z,29.79
2023-05-06T02:52:56.202Z,29.98
2023-05-06T02:53:56.213Z,29.69
2023-05-06T02:54:56.216Z,29.50
2023-05-06T02:55:56.312Z,29.31
2023-05-06T02:56:56.218Z,29.50
2023-05-06T02:57:56.225Z,29.69
2023-05-06T02:58:56.223Z,30.27
2023-05-06T02:59:56.223Z,29.60
2023-05-06T03:00:56.283Z,29.69
2023-05-06T03:01:56.224Z,29.89
2023-05-06T03:02:56.272Z,29.50
2023-05-06T03:03:56.263Z,29.41
2023-05-06T03:04:56.244Z,29.21
2023-05-06T03:05:56.249Z,29.41
2023-05-06T03:06:56.232Z,29.31
2023-05-06T03:07:56.231Z,28.73
2023-05-06T03:08:56.242Z,29.31
2023-05-06T03:09:56.235Z,28.73
2023-05-06T03:10:56.252Z,29.41
2023-05-06T03:11:56.334Z,29.50
2023-05-06T03:12:56.281Z,29.41
2023-05-06T03:13:56.243Z,29.41
2023-05-06T03:14:56.242Z,29.21
2023-05-06T03:15:56.249Z,29.31
2023-05-06T03:16:56.271Z,29.50
2023-05-06T03:17:56.255Z,29.50
2023-05-06T03:18:56.254Z,29.31
2023-05-06T03:19:56.252Z,29.31
2023-05-06T03:20:56.275Z,29.11
2023-05-06T03:21:56.284Z,29.21
2023-05-06T03:22:56.253Z,29.50
2023-05-06T03:23:56.264Z,28.73
2023-05-06T03:24:56.257Z,29.21
2023-05-06T03:25:56.254Z,29.11
2023-05-06T03:26:56.259Z,29.41
2023-05-06T03:27:56.362Z,29.31
2023-05-06T03:28:56.268Z,29.41
2023-05-06T03:29:56.269Z,29.41
2023-05-06T03:30:56.278Z,29.41
2023-05-06T03:31:56.378Z,29.11
2023-05-06T03:32:56.332Z,29.11
2023-05-06T03:33:56.273Z,29.02
2023-05-06T03:34:56.277Z,29.11
2023-05-06T03:35:56.277Z,29.02
2023-05-06T03:36:56.277Z,29.41
2023-05-06T03:37:56.278Z,29.11
2023-05-06T03:38:56.278Z,28.92
2023-05-06T03:39:56.282Z,28.92
2023-05-06T03:40:56.288Z,29.02
2023-05-06T03:41:56.296Z,28.73
2023-05-06T03:42:56.299Z,28.92
2023-05-06T03:43:56.450Z,29.11
2023-05-06T03:44:56.297Z,29.41
2023-05-06T03:45:56.338Z,29.50
2023-05-06T03:46:56.296Z,29.21
2023-05-06T03:47:58.332Z,29.31
2023-05-06T03:48:56.301Z,28.53
2023-05-06T03:49:56.294Z,28.92
2023-05-06T03:50:56.305Z,28.73
2023-05-06T03:51:56.298Z,28.73
2023-05-06T03:52:56.302Z,29.41
2023-05-06T03:53:56.305Z,28.92
2023-05-06T03:54:56.307Z,29.31
2023-05-06T03:55:56.307Z,28.53
2023-05-06T03:56:56.346Z,28.92
2023-05-06T03:57:56.307Z,28.92
2023-05-06T03:58:56.315Z,28.53
2023-05-06T03:59:56.413Z,28.44
2023-05-06T04:00:56.338Z,28.92
2023-05-06T04:01:56.415Z,29.31
2023-05-06T04:02:56.362Z,29.31
2023-05-06T04:03:56.357Z,29.31
2023-05-06T04:04:56.315Z,29.02
2023-05-06T04:05:56.317Z,28.83
2023-05-06T04:06:56.332Z,29.31
2023-05-06T04:07:56.324Z,29.41
2023-05-06T04:08:56.331Z,29.50
2023-05-06T04:09:56.326Z,29.21
2023-05-06T04:10:56.331Z,29.41
2023-05-06T04:11:56.324Z,29.21
2023-05-06T04:12:56.332Z,29.21
2023-05-06T04:13:56.333Z,28.83
2023-05-06T04:14:56.331Z,29.60
2023-05-06T04:15:56.460Z,29.31
2023-05-06T04:16:56.337Z,28.73
2023-05-06T04:17:56.352Z,29.21
2023-05-06T04:18:56.344Z,28.73
2023-05-06T04:19:56.339Z,29.02
2023-05-06T04:20:56.345Z,29.31
2023-05-06T04:21:56.344Z,29.02
2023-05-06T04:22:56.346Z,28.92
2023-05-06T04:23:56.362Z,29.11
2023-05-06T04:24:56.349Z,28.92
2023-05-06T04:25:56.345Z,29.11
2023-05-06T04:26:56.360Z,29.41
2023-05-06T04:27:56.657Z,29.50
2023-05-06T04:28:56.355Z,29.31
2023-05-06T04:29:56.369Z,29.21
2023-05-06T04:30:56.358Z,28.92
2023-05-06T04:31:56.507Z,29.50
2023-05-06T04:32:56.391Z,29.21
2023-05-06T04:33:56.360Z,29.50
2023-05-06T04:34:56.372Z,29.02
2023-05-06T04:35:56.375Z,29.50
2023-05-06T04:36:56.373Z,29.11
2023-05-06T04:37:56.375Z,29.02
2023-05-06T04:38:56.370Z,28.83
2023-05-06T04:39:56.376Z,29.31
2023-05-06T04:40:56.379Z,29.21
2023-05-06T04:41:56.397Z,29.31
2023-05-06T04:42:56.382Z,29.11
2023-05-06T04:43:56.374Z,29.41
2023-05-06T04:44:56.385Z,29.41
2023-05-06T04:45:56.456Z,29.21
2023-05-06T04:46:56.383Z,29.41
2023-05-06T04:47:56.591Z,29.50
2023-05-06T04:48:56.396Z,29.41
2023-05-06T04:49:56.391Z,29.31
2023-05-06T04:50:56.392Z,29.41
2023-05-06T04:51:56.397Z,29.41
2023-05-06T04:52:56.701Z,29.69
2023-05-06T04:53:56.397Z,29.31
2023-05-06T04:54:56.398Z,29.41
2023-05-06T04:55:56.404Z,29.41
2023-05-06T04:56:56.402Z,29.69
2023-05-06T04:57:56.428Z,30.46
2023-05-06T04:58:56.410Z,29.21
2023-05-06T04:59:56.414Z,29.31
2023-05-06T05:00:56.471Z,29.60
2023-05-06T05:01:56.414Z,29.60
2023-05-06T05:02:56.473Z,29.69
2023-05-06T05:03:56.509Z,30.37
2023-05-06T05:04:56.421Z,30.37
2023-05-06T05:05:56.413Z,29.60
2023-05-06T05:06:56.425Z,29.21
2023-05-06T05:07:56.423Z,30.56
2023-05-06T05:08:57.083Z,29.69
2023-05-06T05:09:56.425Z,29.69
2023-05-06T05:10:56.425Z,29.21
2023-05-06T05:11:56.429Z,29.60
2023-05-06T05:12:56.635Z,29.31
2023-05-06T05:13:57.174Z,29.69
2023-05-06T05:14:56.430Z,29.69
2023-05-06T05:15:56.435Z,29.41
2023-05-06T05:16:56.457Z,29.41
2023-05-06T05:17:56.568Z,29.41
2023-05-06T05:18:56.433Z,29.21
2023-05-06T05:19:56.606Z,29.79
2023-05-06T05:20:56.445Z,29.69
2023-05-06T05:21:56.463Z,29.41
2023-05-06T05:22:56.468Z,29.50
2023-05-06T05:23:56.446Z,29.41
2023-05-06T05:24:56.447Z,29.21
2023-05-06T05:25:56.452Z,29.31
2023-05-06T05:26:56.457Z,29.02
2023-05-06T05:27:56.469Z,29.41
2023-05-06T05:28:56.454Z,29.69
2023-05-06T05:29:56.468Z,29.41
2023-05-06T05:30:56.513Z,29.21
2023-05-06T05:31:56.456Z,29.41
2023-05-06T05:32:56.575Z,29.50
2023-05-06T05:33:56.480Z,29.41
2023-05-06T05:34:56.474Z,29.89
2023-05-06T05:35:56.483Z,29.31
2023-05-06T05:36:56.502Z,29.50
2023-05-06T05:37:56.485Z,28.73
2023-05-06T05:38:56.472Z,28.83
2023-05-06T05:39:56.473Z,27.75
2023-05-06T05:40:56.475Z,26.79
2023-05-06T05:41:56.480Z,28.72
2023-05-06T05:42:56.478Z,28.42
2023-05-06T05:43:56.479Z,28.23
2023-05-06T05:44:56.481Z,28.42
2023-05-06T05:45:56.540Z,28.72
2023-05-06T05:46:56.483Z,28.52
2023-05-06T05:47:56.516Z,28.23
2023-05-06T05:48:56.494Z,28.62
2023-05-06T05:49:56.497Z,28.53
2023-05-06T05:50:56.489Z,28.63
2023-05-06T05:51:56.590Z,28.53
2023-05-06T05:52:56.509Z,28.15
2023-05-06T05:53:56.493Z,28.73
2023-05-06T05:54:56.497Z,28.73
2023-05-06T05:55:56.496Z,28.63
2023-05-06T05:56:56.505Z,28.53
2023-05-06T05:57:56.500Z,28.44
2023-05-06T05:58:56.502Z,28.63
2023-05-06T05:59:56.502Z,28.63
2023-05-06T06:00:56.506Z,28.44
2023-05-06T06:01:56.508Z,28.83
2023-05-06T06:02:56.590Z,28.83
2023-05-06T06:03:56.857Z,28.73
2023-05-06T06:04:56.552Z,28.63
2023-05-06T06:05:56.517Z,28.63
2023-05-06T06:06:56.510Z,28.63
2023-05-06T06:07:56.623Z,28.25
2023-05-06T06:08:56.519Z,28.45
2023-05-06T06:09:56.515Z,28.63
2023-05-06T06:10:56.522Z,28.63
2023-05-06T06:11:56.528Z,28.63
2023-05-06T06:12:56.709Z,28.53
2023-05-06T06:13:56.532Z,28.44
2023-05-06T06:14:56.529Z,28.73
2023-05-06T06:15:56.596Z,28.44
2023-05-06T06:16:56.538Z,28.73
2023-05-06T06:17:56.573Z,28.73
2023-05-06T06:18:56.532Z,28.73
2023-05-06T06:19:56.533Z,28.83
2023-05-06T06:20:56.543Z,28.73
2023-05-06T06:21:56.536Z,28.74
2023-05-06T06:22:56.535Z,28.64
2023-05-06T06:23:56.569Z,28.64
2023-05-06T06:24:56.588Z,28.36
2023-05-06T06:25:56.548Z,28.74
2023-05-06T06:26:56.567Z,28.55
2023-05-06T06:27:56.547Z,28.53
2023-05-06T06:28:56.552Z,28.26
2023-05-06T06:29:56.558Z,28.74
2023-05-06T06:30:56.552Z,28.53
2023-05-06T06:31:56.568Z,28.55
2023-05-06T06:32:56.702Z,28.53
2023-05-06T06:33:56.574Z,28.55
2023-05-06T06:34:56.559Z,28.74
2023-05-06T06:35:56.567Z,29.22
2023-05-06T06:36:56.560Z,29.03
2023-05-06T06:37:56.571Z,29.22
2023-05-06T06:38:56.569Z,29.32
2023-05-06T06:39:56.753Z,29.32
2023-05-06T06:40:56.568Z,29.50
2023-05-06T06:41:56.582Z,29.42
2023-05-06T06:42:56.728Z,29.90
2023-05-06T06:43:56.608Z,30.10
2023-05-06T06:44:56.581Z,30.19
2023-05-06T06:45:56.612Z,29.42
2023-05-06T06:46:56.581Z,28.83
2023-05-06T06:47:56.696Z,27.37
2023-05-06T06:48:56.589Z,28.15
2023-05-06T06:49:56.579Z,29.41
2023-05-06T06:50:56.591Z,30.18
2023-05-06T06:51:56.588Z,29.79
2023-05-06T06:52:56.597Z,29.31
2023-05-06T06:53:56.608Z,29.31
2023-05-06T06:54:56.594Z,29.69
2023-05-06T06:55:56.688Z,29.79
2023-05-06T06:56:56.612Z,29.60
2023-05-06T06:57:56.610Z,29.60
2023-05-06T06:58:56.604Z,29.31
2023-05-06T06:59:56.600Z,29.79
2023-05-06T07:00:56.627Z,29.98
2023-05-06T07:01:56.600Z,30.37
2023-05-06T07:02:56.651Z,30.29
2023-05-06T07:03:56.647Z,30.37
2023-05-06T07:04:56.610Z,30.10
2023-05-06T07:05:56.606Z,30.18
2023-05-06T07:06:56.622Z,30.08
2023-05-06T07:07:56.620Z,30.58
2023-05-06T07:08:56.620Z,30.46
2023-05-06T07:09:56.624Z,30.27
2023-05-06T07:10:56.637Z,30.48
2023-05-06T07:11:56.758Z,30.58
2023-05-06T07:12:56.717Z,30.29
2023-05-06T07:13:56.627Z,31.33
2023-05-06T07:14:56.631Z,31.45
2023-05-06T07:15:56.629Z,31.35
2023-05-06T07:16:56.660Z,31.35
2023-05-06T07:17:56.647Z,31.45
2023-05-06T07:18:56.630Z,27.48
2023-05-06T07:19:56.633Z,26.97
2023-05-06T07:20:56.646Z,29.18
2023-05-06T07:21:56.640Z,29.68
2023-05-06T07:22:56.645Z,30.55
2023-05-06T07:23:56.645Z,30.93
2023-05-06T07:24:56.641Z,30.56
2023-05-06T07:25:56.649Z,30.37
2023-05-06T07:26:56.658Z,30.56
2023-05-06T07:27:56.902Z,30.27
2023-05-06T07:28:56.659Z,30.46
2023-05-06T07:29:56.655Z,29.98
2023-05-06T07:30:56.695Z,30.18
2023-05-06T07:31:56.654Z,29.89
2023-05-06T07:32:56.705Z,30.08
2023-05-06T07:33:56.668Z,30.18
2023-05-06T07:34:56.672Z,30.48
2023-05-06T07:35:56.656Z,30.29
2023-05-06T07:36:56.670Z,31.45
2023-05-06T07:37:56.669Z,30.58
2023-05-06T07:38:56.677Z,31.35
2023-05-06T07:39:56.671Z,30.85
2023-05-06T07:40:56.672Z,30.58
2023-05-06T07:41:56.677Z,30.58
2023-05-06T07:42:56.978Z,30.38
2023-05-06T07:43:56.774Z,30.19
2023-05-06T07:44:56.675Z,30.38
2023-05-06T07:45:56.724Z,30.58
2023-05-06T07:46:56.816Z,30.19
2023-05-06T07:47:56.736Z,30.38
2023-05-06T07:48:56.687Z,31.06
2023-05-06T07:49:56.687Z,30.67
2023-05-06T07:50:56.691Z,30.67
2023-05-06T07:51:56.699Z,31.45
2023-05-06T07:52:56.693Z,31.45
2023-05-06T07:53:56.692Z,31.06
2023-05-06T07:54:56.705Z,31.54
2023-05-06T07:55:56.695Z,31.45
2023-05-06T07:56:56.698Z,31.25
2023-05-06T07:57:56.705Z,31.45
2023-05-06T07:58:56.705Z,31.45
2023-05-06T07:59:56.724Z,31.45
2023-05-06T08:00:56.728Z,31.35
2023-05-06T08:01:56.708Z,31.25
2023-05-06T08:02:56.833Z,31.63
2023-05-06T08:03:56.848Z,31.83
2023-05-06T08:04:56.831Z,31.83
2023-05-06T08:05:56.741Z,31.73
2023-05-06T08:06:56.713Z,31.54
2023-05-06T08:07:56.729Z,31.63
2023-05-06T08:08:56.719Z,31.73
2023-05-06T08:09:56.749Z,31.45
2023-05-06T08:10:56.725Z,31.54
2023-05-06T08:11:56.735Z,31.54
2023-05-06T08:12:56.770Z,31.45
2023-05-06T08:13:56.729Z,31.45
2023-05-06T08:14:56.736Z,31.45
2023-05-06T08:15:56.853Z,31.54
2023-05-06T08:16:56.752Z,31.35
2023-05-06T08:18:00.211Z,31.35
2023-05-06T08:18:56.742Z,31.25
2023-05-06T08:19:56.740Z,30.87
2023-05-06T08:20:56.743Z,31.45
2023-05-06T08:21:56.750Z,31.25
2023-05-06T08:22:56.747Z,31.62
2023-05-06T08:23:56.750Z,31.83
2023-05-06T08:24:56.752Z,32.31
2023-05-06T08:25:56.752Z,31.93
2023-05-06T08:26:56.756Z,31.73
2023-05-06T08:27:56.860Z,32.31
2023-05-06T08:28:56.766Z,32.51
2023-05-06T08:29:56.762Z,32.31
2023-05-06T08:30:56.776Z,31.73
2023-05-06T08:31:56.808Z,32.79
2023-05-06T08:32:56.809Z,32.79
2023-05-06T08:33:56.772Z,32.41
2023-05-06T08:34:56.770Z,32.60
2023-05-06T08:35:56.779Z,32.70
2023-05-06T08:36:56.773Z,32.99
2023-05-06T08:37:56.779Z,33.37
2023-05-06T08:38:56.778Z,33.57
2023-05-06T08:39:58.158Z,33.86
2023-05-06T08:40:56.808Z,33.76
2023-05-06T08:41:56.791Z,34.05
2023-05-06T08:42:56.796Z,34.53
2023-05-06T08:43:56.790Z,34.14
2023-05-06T08:44:56.849Z,33.76
2023-05-06T08:45:56.841Z,33.76
2023-05-06T08:46:56.787Z,33.47
2023-05-06T08:47:56.882Z,33.76
2023-05-06T08:48:56.798Z,33.18
2023-05-06T08:49:56.793Z,33.57
2023-05-06T08:50:56.811Z,33.76
2023-05-06T08:51:56.800Z,33.47
2023-05-06T08:52:56.955Z,32.89
2023-05-06T08:53:56.805Z,32.29
2023-05-06T08:54:56.810Z,27.46
2023-05-06T08:55:56.812Z,26.58
2023-05-06T08:56:56.807Z,29.18
2023-05-06T08:57:56.810Z,31.12
2023-05-06T08:58:56.822Z,30.74
2023-05-06T08:59:56.815Z,31.32
2023-05-06T09:00:56.891Z,31.41
2023-05-06T09:01:56.868Z,31.62
2023-05-06T09:02:57.028Z,31.72
2023-05-06T09:03:56.926Z,32.39
2023-05-06T09:04:56.867Z,32.29
2023-05-06T09:05:56.832Z,31.83
2023-05-06T09:06:56.827Z,32.03
2023-05-06T09:07:56.828Z,31.83
2023-05-06T09:08:56.842Z,31.83
2023-05-06T09:09:56.829Z,31.83
2023-05-06T09:10:56.837Z,29.89
2023-05-06T09:11:56.832Z,28.62
2023-05-06T09:12:56.961Z,28.31
2023-05-06T09:13:56.836Z,27.55
2023-05-06T09:14:56.843Z,26.67
2023-05-06T09:15:56.843Z,26.27
2023-05-06T09:16:56.944Z,26.35
2023-05-06T09:17:56.873Z,26.54
2023-05-06T09:18:56.851Z,25.20
2023-05-06T09:19:57.006Z,25.28
2023-05-06T09:20:58.227Z,25.28
2023-05-06T09:21:56.855Z,24.90
2023-05-06T09:22:56.855Z,24.80
2023-05-06T09:23:56.858Z,25.18
2023-05-06T09:24:57.037Z,26.43
2023-05-06T09:25:56.861Z,26.24
2023-05-06T09:26:56.871Z,28.27
2023-05-06T09:27:56.867Z,28.86
2023-05-06T09:28:56.864Z,28.69
2023-05-06T09:29:56.865Z,29.27
2023-05-06T09:30:56.921Z,28.41
2023-05-06T09:31:56.872Z,28.41
2023-05-06T09:32:56.875Z,28.80
2023-05-06T09:33:56.881Z,29.38
2023-05-06T09:34:56.893Z,29.39
2023-05-06T09:35:56.971Z,30.35
2023-05-06T09:36:56.875Z,32.18
2023-05-06T09:37:56.887Z,31.51
2023-05-06T09:38:56.883Z,30.74
2023-05-06T09:39:56.893Z,28.99
2023-05-06T09:40:56.895Z,27.05
2023-05-06T09:41:56.895Z,25.59
2023-05-06T09:42:56.885Z,25.01
2023-05-06T09:43:56.892Z,25.09
2023-05-06T09:44:58.143Z,25.17
2023-05-06T09:45:56.950Z,25.07
2023-05-06T09:46:56.887Z,25.56
2023-05-06T09:47:57.075Z,25.64
2023-05-06T09:48:56.946Z,25.45
2023-05-06T09:49:56.900Z,25.93
2023-05-06T09:50:58.323Z,26.31
2023-05-06T09:51:57.016Z,26.70
2023-05-06T09:52:56.904Z,27.27
2023-05-06T09:53:56.895Z,26.89
2023-05-06T09:54:56.910Z,26.21
2023-05-06T09:55:56.957Z,25.93
2023-05-06T09:56:57.837Z,26.21
2023-05-06T10:06:56.911Z,26.47
2023-05-06T10:07:57.063Z,26.76
2023-05-06T10:08:56.914Z,26.67
2023-05-06T10:09:56.915Z,26.67
2023-05-06T10:10:56.954Z,26.78
2023-05-06T10:11:56.914Z,26.78
2023-05-06T10:12:56.940Z,26.68
2023-05-06T10:13:56.928Z,26.78
2023-05-06T10:14:56.934Z,26.97
2023-05-06T10:15:56.952Z,27.06
2023-05-06T10:16:56.919Z,27.17
2023-05-06T10:17:56.976Z,26.89
2023-05-06T10:18:56.921Z,26.97
2023-05-06T10:19:56.934Z,27.55
2023-05-06T10:20:56.922Z,27.64
2023-05-06T10:21:56.921Z,27.64
2023-05-06T10:22:56.925Z,27.64
2023-05-06T10:23:57.098Z,27.74
2023-05-06T10:24:56.928Z,28.22
2023-05-06T10:25:56.929Z,27.93
2023-05-06T10:26:57.077Z,27.94
2023-05-06T10:27:56.944Z,28.33
2023-05-06T10:28:56.947Z,28.91
2023-05-06T10:29:56.981Z,29.10
2023-05-06T10:30:56.942Z,29.39
2023-05-06T10:31:56.954Z,29.10
2023-05-06T10:32:56.979Z,29.49
2023-05-06T10:33:56.952Z,29.29
2023-05-06T10:34:56.997Z,30.27
2023-05-06T10:35:56.934Z,30.27
2023-05-06T10:36:56.941Z,30.18
2023-05-06T10:37:56.942Z,30.27
2023-05-06T10:38:56.949Z,30.08
2023-05-06T10:39:56.976Z,30.66
2023-05-06T10:40:56.944Z,31.14
2023-05-06T10:41:56.945Z,34.80
2023-05-06T10:42:56.946Z,34.22
2023-05-06T10:43:57.284Z,33.84
2023-05-06T10:44:56.954Z,33.74
2023-05-06T10:45:56.987Z,33.45
2023-05-06T10:46:56.952Z,33.74
2023-05-06T10:47:56.993Z,33.55
2023-05-06T10:48:56.958Z,34.05
2023-05-06T10:49:56.951Z,34.52
2023-05-06T10:50:56.963Z,33.66
2023-05-06T10:51:56.957Z,33.76
2023-05-06T10:52:56.960Z,33.86
2023-05-06T10:53:56.971Z,33.76
2023-05-06T10:54:56.964Z,34.72
2023-05-06T10:55:56.984Z,34.92
2023-05-06T10:56:56.965Z,33.57
2023-05-06T10:57:56.961Z,34.63
2023-05-06T10:58:56.974Z,34.53
2023-05-06T10:59:56.987Z,34.92
2023-05-06T11:00:57.006Z,35.11
2023-05-06T11:01:56.989Z,35.11
2023-05-06T11:02:57.070Z,34.63
2023-05-06T11:03:56.990Z,34.92
2023-05-06T11:04:56.981Z,34.63
2023-05-06T11:05:56.992Z,34.72
2023-05-06T11:06:56.981Z,34.14
2023-05-06T11:07:56.984Z,34.44
2023-05-06T11:08:56.993Z,34.53
2023-05-06T11:09:56.987Z,34.44
2023-05-06T11:10:56.998Z,34.14
2023-05-06T11:11:57.017Z,34.53
2023-05-06T11:12:57.046Z,34.63
2023-05-06T11:13:57.002Z,33.95
2023-05-06T11:14:57.004Z,34.34
2023-05-06T11:15:57.075Z,34.24
2023-05-06T11:16:57.084Z,33.57
2023-05-06T11:17:57.183Z,34.24
2023-05-06T11:18:57.019Z,34.34
2023-05-06T11:19:57.017Z,34.63
2023-05-06T11:20:57.016Z,35.21
2023-05-06T11:21:57.014Z,35.59
2023-05-06T11:22:57.031Z,34.63
2023-05-06T11:23:57.017Z,34.14
2023-05-06T11:24:57.016Z,34.05
2023-05-06T11:25:57.024Z,34.82
2023-05-06T11:26:57.036Z,34.53
2023-05-06T11:27:57.051Z,34.34
2023-05-06T11:28:57.026Z,33.86
2023-05-06T11:29:57.031Z,33.86
2023-05-06T11:30:57.056Z,33.66
2023-05-06T11:31:57.030Z,33.95
2023-05-06T11:32:57.105Z,33.95
2023-05-06T11:33:57.040Z,33.86
2023-05-06T11:34:57.066Z,33.76
2023-05-06T11:35:57.043Z,33.86
2023-05-06T11:36:57.049Z,34.05
2023-05-06T11:37:57.091Z,33.76
2023-05-06T11:38:57.044Z,33.66
2023-05-06T11:39:57.044Z,33.37
2023-05-06T11:40:57.057Z,33.28
2023-05-06T11:41:57.059Z,33.47
2023-05-06T11:42:57.054Z,33.47
2023-05-06T11:43:57.375Z,33.29
2023-05-06T11:44:57.058Z,33.39
2023-05-06T11:45:57.071Z,32.89
2023-05-06T11:46:57.079Z,32.79
2023-05-06T11:47:57.110Z,32.81
2023-05-06T11:48:57.079Z,33.00
2023-05-06T11:49:57.075Z,33.20
2023-05-06T11:50:57.079Z,32.91
2023-05-06T11:51:57.078Z,32.62
2023-05-06T11:52:57.075Z,32.43
2023-05-06T11:53:57.091Z,32.89
2023-05-06T11:54:57.087Z,32.62
2023-05-06T11:55:57.083Z,32.03
2023-05-06T11:56:57.090Z,32.14
2023-05-06T11:57:57.107Z,32.23
2023-05-06T11:58:57.106Z,32.23
2023-05-06T11:59:57.185Z,32.23
2023-05-06T12:00:57.107Z,32.03
2023-05-06T12:01:57.099Z,32.04
2023-05-06T12:02:57.176Z,31.85
2023-05-06T12:03:57.269Z,31.94
2023-05-06T12:04:57.150Z,31.94
2023-05-06T12:05:57.095Z,31.65
2023-05-06T12:06:57.105Z,31.65
2023-05-06T12:07:57.115Z,31.37
2023-05-06T12:08:57.116Z,31.46
2023-05-06T12:09:57.123Z,31.27
2023-05-06T12:10:57.110Z,31.54
2023-05-06T12:11:57.114Z,31.85
2023-05-06T12:12:57.205Z,31.65
2023-05-06T12:13:57.118Z,31.37
2023-05-06T12:14:57.155Z,31.65
2023-05-06T12:15:57.228Z,31.63
2023-05-06T12:16:57.125Z,31.54
2023-05-06T12:17:57.194Z,31.54
2023-05-06T12:18:57.127Z,31.63
2023-05-06T12:19:57.130Z,31.75
2023-05-06T12:20:57.136Z,31.94
2023-05-06T12:21:57.150Z,31.85
2023-05-06T12:22:57.136Z,31.63
2023-05-06T12:23:57.177Z,31.85
2023-05-06T12:24:57.145Z,31.56
2023-05-06T12:25:57.148Z,31.73
2023-05-06T12:26:57.155Z,31.73
2023-05-06T12:27:57.942Z,31.83
2023-05-06T12:28:57.151Z,31.65
2023-05-06T12:29:57.148Z,31.83
2023-05-06T12:30:57.166Z,31.27
2023-05-06T12:31:57.195Z,31.73
2023-05-06T12:32:57.261Z,31.73
2023-05-06T12:33:58.660Z,31.54
2023-05-06T12:34:57.171Z,31.85
2023-05-06T12:35:57.177Z,31.54
2023-05-06T12:36:57.173Z,31.83
2023-05-06T12:37:57.172Z,31.93
2023-05-06T12:38:57.176Z,31.63
2023-05-06T12:39:59.041Z,31.73
2023-05-06T12:40:57.190Z,31.35
2023-05-06T12:41:57.182Z,31.63
2023-05-06T12:42:57.185Z,31.63
2023-05-06T12:43:57.192Z,31.45
2023-05-06T12:44:57.188Z,31.35
2023-05-06T12:45:57.850Z,31.54
2023-05-06T12:46:57.194Z,31.35
2023-05-06T12:47:57.343Z,31.25
2023-05-06T12:48:57.249Z,31.54
2023-05-06T12:49:57.201Z,31.45
2023-05-06T12:50:57.202Z,31.63
2023-05-06T12:51:57.216Z,31.73
2023-05-06T12:52:57.224Z,31.45
2023-05-06T12:53:57.206Z,31.45
2023-05-06T12:54:57.238Z,31.35
2023-05-06T12:55:57.213Z,31.35
2023-05-06T12:56:57.222Z,31.25
2023-05-06T12:57:57.958Z,31.45
2023-05-06T12:58:57.229Z,31.35
2023-05-06T12:59:57.220Z,31.25
2023-05-06T13:00:57.307Z,31.45
2023-05-06T13:01:57.222Z,31.45